Time;durP1;ratioP1;P1;durP2;ratioP2;P2;SDS_P1;SDS_P2;PMS_P1;PMS_P2;Temp;Humidity;BMP_temperature;BMP_pressure;BME280_temperature;BME280_humidity;BME280_pressure;Samples;Min_cycle;Max_cycle;Signal;HPM_P1;HPM_P2
2023/04/05 00:02:09;;;;;;;5.03;2.97;;;;;;;;;;5024729;28;20099;-55
2023/04/05 00:04:37;;;;;;;6.70;3.78;;;;;;;;;;5024407;28;20022;-56
2023/04/05 00:07:07;;;;;;;6.63;3.63;;;;;;;;;;5024038;28;20057;-55
2023/04/05 00:09:32;;;;;;;6.32;3.90;;;;;;;;;;5024298;28;20155;-54
2023/04/05 00:11:57;;;;;;;9.27;4.03;;;;;;;;;;5024327;28;20124;-50
2023/04/05 00:14:22;;;;;;;4.63;3.00;;;;;;;;;;5024167;28;20021;-52
2023/04/05 00:16:48;;;;;;;7.93;3.75;;;;;;;;;;5024191;28;20446;-53
2023/04/05 00:19:14;;;;;;;9.50;4.13;;;;;;;;;;5024224;28;20033;-51
2023/04/05 00:21:39;;;;;;;9.85;4.40;;;;;;;;;;5024000;28;20459;-51
2023/04/05 00:24:05;;;;;;;6.75;3.60;;;;;;;;;;5024146;28;20120;-52
2023/04/05 00:26:30;;;;;;;8.07;4.18;;;;;;;;;;5023938;28;20079;-50
2023/04/05 00:28:55;;;;;;;6.95;3.63;;;;;;;;;;5024148;28;20030;-52
2023/04/05 00:31:20;;;;;;;7.40;4.10;;;;;;;;;;5023949;28;20048;-50
2023/04/05 00:33:46;;;;;;;7.47;3.55;;;;;;;;;;5023663;28;20060;-52
2023/04/05 00:36:12;;;;;;;8.73;3.33;;;;;;;;;;5024164;28;20057;-52
2023/04/05 00:38:37;;;;;;;9.13;3.80;;;;;;;;;;5023746;28;20030;-52
2023/04/05 00:41:03;;;;;;;6.85;3.50;;;;;;;;;;5024067;28;20475;-52
2023/04/05 00:43:28;;;;;;;7.38;3.53;;;;;;;;;;5023853;28;20354;-48
2023/04/05 00:45:55;;;;;;;7.30;3.72;;;;;;;;;;5024137;28;20029;-52
2023/04/05 00:48:20;;;;;;;7.55;3.78;;;;;;;;;;5024050;28;20026;-55
2023/04/05 00:50:47;;;;;;;6.30;3.33;;;;;;;;;;5023874;28;20113;-51
2023/04/05 00:53:13;;;;;;;8.98;3.30;;;;;;;;;;5022395;28;20026;-52
2023/04/05 00:55:39;;;;;;;10.38;3.92;;;;;;;;;;5027721;28;20469;-52
2023/04/05 00:58:05;;;;;;;8.02;4.20;;;;;;;;;;5027900;28;20489;-53
2023/04/05 01:00:31;;;;;;;7.25;3.55;;;;;;;;;;5027601;28;20025;-51
2023/04/05 01:03:01;;;;;;;5.30;3.10;;;;;;;;;;5025027;28;20497;-52
2023/04/05 01:05:36;;;;;;;8.65;3.78;;;;;;;;;;5027546;28;20013;-56
2023/04/05 01:08:01;;;;;;;6.85;3.20;;;;;;;;;;5027605;28;20025;-52
2023/04/05 01:10:30;;;;;;;7.60;3.65;;;;;;;;;;5027351;28;20029;-53
2023/04/05 01:12:55;;;;;;;9.45;4.28;;;;;;;;;;5027204;28;20022;-54
2023/04/05 01:15:20;;;;;;;9.48;3.85;;;;;;;;;;5027196;28;20473;-51
2023/04/05 01:17:47;;;;;;;9.48;4.00;;;;;;;;;;5027184;28;20029;-56
2023/04/05 01:20:14;;;;;;;7.70;3.45;;;;;;;;;;5027218;28;20014;-53
2023/04/05 01:22:58;;;;;;;8.70;4.05;;;;;;;;;;5025658;28;20464;-55
2023/04/05 01:25:41;;;;;;;6.93;4.05;;;;;;;;;;5027284;28;20028;-51
2023/04/05 01:28:26;;;;;;;9.00;3.70;;;;;;;;;;5027105;28;20029;-54
2023/04/05 01:30:54;;;;;;;6.00;3.20;;;;;;;;;;5026927;28;20075;-53
2023/04/05 01:33:33;;;;;;;6.70;3.63;;;;;;;;;;5026994;28;20090;-55
2023/04/05 01:36:07;;;;;;;8.05;3.58;;;;;;;;;;5026963;28;20227;-55
2023/04/05 01:38:37;;;;;;;8.65;4.35;;;;;;;;;;5026843;28;20022;-52
2023/04/05 01:41:02;;;;;;;8.15;3.88;;;;;;;;;;5026362;28;20018;-50
2023/04/05 01:43:28;;;;;;;10.32;4.15;;;;;;;;;;5026699;28;20025;-51
2023/04/05 01:45:53;;;;;;;9.73;4.22;;;;;;;;;;5027027;28;20499;-51
2023/04/05 01:48:18;;;;;;;7.45;3.58;;;;;;;;;;5026495;28;20029;-53
2023/04/05 01:50:43;;;;;;;9.05;4.15;;;;;;;;;;5026411;28;20044;-52
2023/04/05 01:53:09;;;;;;;10.80;4.00;;;;;;;;;;5026407;28;20074;-50
2023/04/05 01:55:34;;;;;;;8.63;4.38;;;;;;;;;;5040380;28;20477;-54
2023/04/05 01:58:00;;;;;;;9.95;3.92;;;;;;;;;;5026439;28;20171;-52
2023/04/05 02:00:26;;;;;;;10.80;3.92;;;;;;;;;;5026717;28;20068;-56
2023/04/05 02:02:51;;;;;;;10.82;4.53;;;;;;;;;;5026570;28;20022;-55
2023/04/05 02:05:17;;;;;;;13.82;5.25;;;;;;;;;;5026701;28;20024;-56
2023/04/05 02:07:42;;;;;;;9.27;4.50;;;;;;;;;;5023764;28;20039;-53
2023/04/05 02:10:07;;;;;;;13.38;5.55;;;;;;;;;;5026426;28;20021;-55
2023/04/05 02:12:33;;;;;;;7.90;4.35;;;;;;;;;;5026253;28;20111;-55
2023/04/05 02:14:58;;;;;;;11.18;5.57;;;;;;;;;;5026556;28;20021;-51
2023/04/05 02:17:24;;;;;;;12.88;5.72;;;;;;;;;;5026092;28;20025;-53
2023/04/05 02:19:51;;;;;;;11.07;5.22;;;;;;;;;;5026094;28;20059;-55
2023/04/05 02:22:17;;;;;;;8.60;4.70;;;;;;;;;;5026309;28;20026;-55
2023/04/05 02:24:42;;;;;;;9.02;4.90;;;;;;;;;;5025590;28;20464;-53
2023/04/05 02:27:07;;;;;;;11.82;5.68;;;;;;;;;;5025777;28;20064;-53
2023/04/05 02:29:33;;;;;;;10.82;5.30;;;;;;;;;;5025973;28;20022;-49
2023/04/05 02:31:59;;;;;;;14.20;5.65;;;;;;;;;;5026090;28;20022;-54
2023/04/05 02:34:24;;;;;;;14.27;6.10;;;;;;;;;;5025430;28;20061;-55
2023/04/05 02:36:50;;;;;;;10.80;5.18;;;;;;;;;;5025697;28;20416;-53
2023/04/05 02:39:15;;;;;;;10.85;5.10;;;;;;;;;;5025553;28;20022;-52
2023/04/05 02:41:40;;;;;;;10.02;6.22;;;;;;;;;;5025484;28;20064;-51
2023/04/05 02:44:06;;;;;;;11.15;5.60;;;;;;;;;;5025552;28;20030;-54
2023/04/05 02:46:31;;;;;;;10.15;5.55;;;;;;;;;;5022915;28;20029;-55
2023/04/05 02:48:56;;;;;;;13.45;6.63;;;;;;;;;;5025648;28;20108;-54
2023/04/05 02:51:21;;;;;;;16.67;5.72;;;;;;;;;;5025472;28;20029;-56
2023/04/05 02:53:47;;;;;;;14.30;5.93;;;;;;;;;;5025583;28;20048;-54
2023/04/05 02:56:13;;;;;;;12.85;5.80;;;;;;;;;;5022795;28;20033;-53
2023/04/05 02:58:39;;;;;;;12.80;5.88;;;;;;;;;;5025622;28;20018;-53
2023/04/05 03:01:06;;;;;;;14.55;5.75;;;;;;;;;;5025411;28;20052;-55
2023/04/05 03:03:33;;;;;;;10.75;5.55;;;;;;;;;;5025316;28;20460;-55
2023/04/05 03:06:00;;;;;;;13.35;6.45;;;;;;;;;;5025519;28;20087;-51
2023/04/05 03:08:25;;;;;;;13.07;6.18;;;;;;;;;;5025332;28;20025;-50
2023/04/05 03:10:51;;;;;;;13.25;6.78;;;;;;;;;;5025127;28;20033;-56
2023/04/05 03:13:16;;;;;;;11.75;5.90;;;;;;;;;;5025332;28;20029;-52
2023/04/05 03:15:42;;;;;;;14.32;5.95;;;;;;;;;;5023603;28;20466;-53
2023/04/05 03:18:08;;;;;;;12.57;5.97;;;;;;;;;;5024546;28;20030;-54
2023/04/05 03:20:35;;;;;;;14.82;5.72;;;;;;;;;;5021971;28;20505;-56
2023/04/05 03:23:00;;;;;;;12.10;5.35;;;;;;;;;;5023249;28;20287;-53
2023/04/05 03:25:26;;;;;;;13.77;5.35;;;;;;;;;;5024520;28;20298;-54
2023/04/05 03:27:51;;;;;;;12.68;5.85;;;;;;;;;;5025126;28;20061;-51
2023/04/05 03:30:17;;;;;;;13.65;6.70;;;;;;;;;;5024800;28;20048;-52
2023/04/05 03:32:42;;;;;;;16.55;5.90;;;;;;;;;;5024953;28;20021;-52
2023/04/05 03:35:07;;;;;;;13.85;5.75;;;;;;;;;;5024453;28;20057;-54
2023/04/05 03:37:33;;;;;;;17.35;5.75;;;;;;;;;;5024663;28;20436;-54
2023/04/05 03:39:58;;;;;;;17.80;5.60;;;;;;;;;;5024553;28;20075;-54
2023/04/05 03:42:23;;;;;;;11.10;5.45;;;;;;;;;;5024838;28;20421;-54
2023/04/05 03:44:51;;;;;;;10.63;5.72;;;;;;;;;;5024757;28;20030;-54
2023/04/05 03:47:16;;;;;;;10.98;5.35;;;;;;;;;;5024631;28;20276;-54
2023/04/05 03:49:41;;;;;;;12.63;5.78;;;;;;;;;;5024587;28;20611;-51
2023/04/05 03:52:08;;;;;;;12.98;5.00;;;;;;;;;;5024570;28;20048;-51
2023/04/05 03:54:33;;;;;;;10.52;5.55;;;;;;;;;;5024439;28;20044;-53
2023/04/05 03:56:58;;;;;;;12.70;6.15;;;;;;;;;;5024349;28;20489;-55
2023/04/05 03:59:23;;;;;;;13.15;5.10;;;;;;;;;;5024148;28;20380;-52
2023/04/05 04:01:49;;;;;;;23.17;6.00;;;;;;;;;;5024377;28;20032;-55
2023/04/05 04:04:14;;;;;;;12.85;5.03;;;;;;;;;;5024501;28;20028;-52
2023/04/05 04:06:40;;;;;;;12.02;5.50;;;;;;;;;;5024459;28;20052;-52
2023/04/05 04:09:06;;;;;;;15.10;5.68;;;;;;;;;;5022528;28;20033;-51
2023/04/05 04:11:31;;;;;;;14.15;5.80;;;;;;;;;;5023960;28;20023;-53
2023/04/05 04:13:56;;;;;;;13.65;5.32;;;;;;;;;;5024163;28;20551;-51
2023/04/05 04:16:21;;;;;;;13.50;6.15;;;;;;;;;;5024345;28;20025;-53
2023/04/05 04:18:47;;;;;;;10.25;5.50;;;;;;;;;;5023909;28;20411;-53
2023/04/05 04:21:13;;;;;;;12.50;4.90;;;;;;;;;;5023661;28;20132;-54
2023/04/05 04:23:39;;;;;;;17.95;6.13;;;;;;;;;;5023518;28;20371;-52
2023/04/05 04:26:04;;;;;;;11.30;6.00;;;;;;;;;;5024096;28;20037;-52
2023/04/05 04:28:33;;;;;;;12.95;5.55;;;;;;;;;;5024125;28;20029;-52
2023/04/05 04:31:03;;;;;;;13.35;5.75;;;;;;;;;;5028098;28;20021;-53
2023/04/05 04:33:28;;;;;;;11.95;5.80;;;;;;;;;;5028059;28;20079;-54
2023/04/05 04:35:54;;;;;;;13.07;6.05;;;;;;;;;;5027675;28;20526;-51
2023/04/05 04:38:19;;;;;;;17.05;8.07;;;;;;;;;;5025796;28;20132;-54
2023/04/05 04:40:49;;;;;;;14.35;5.40;;;;;;;;;;5027537;28;20025;-51
2023/04/05 04:43:18;;;;;;;11.45;6.05;;;;;;;;;;5028068;28;20022;-52
2023/04/05 04:45:46;;;;;;;11.32;6.05;;;;;;;;;;5028006;28;20237;-54
2023/04/05 04:48:13;;;;;;;13.63;6.07;;;;;;;;;;5027649;28;20036;-55
2023/04/05 04:50:38;;;;;;;13.57;6.03;;;;;;;;;;5027939;28;20029;-55
2023/04/05 04:53:04;;;;;;;11.95;5.25;;;;;;;;;;5027528;28;20021;-55
2023/04/05 04:55:32;;;;;;;15.00;6.13;;;;;;;;;;5027400;28;20029;-53
2023/04/05 04:57:57;;;;;;;14.57;6.68;;;;;;;;;;5027509;28;20526;-50
2023/04/05 05:00:23;;;;;;;16.02;6.78;;;;;;;;;;5027370;28;20021;-53
2023/04/05 05:02:49;;;;;;;10.57;5.93;;;;;;;;;;5027442;28;20040;-54
2023/04/05 05:05:14;;;;;;;17.20;6.18;;;;;;;;;;5027074;28;20017;-55
2023/04/05 05:07:42;;;;;;;13.38;6.07;;;;;;;;;;5027169;28;20036;-53
2023/04/05 05:10:11;;;;;;;12.80;6.20;;;;;;;;;;5027326;28;20044;-54
2023/04/05 05:12:37;;;;;;;12.68;5.57;;;;;;;;;;5026867;28;20108;-52
2023/04/05 05:15:02;;;;;;;17.02;6.97;;;;;;;;;;5027271;28;20504;-53
2023/04/05 05:17:28;;;;;;;15.93;5.93;;;;;;;;;;5026788;28;20026;-54
2023/04/05 05:19:53;;;;;;;13.30;5.97;;;;;;;;;;5026965;28;20021;-54
2023/04/05 05:22:19;;;;;;;13.20;6.00;;;;;;;;;;5026657;28;20018;-54
2023/04/05 05:24:45;;;;;;;14.05;6.25;;;;;;;;;;5024638;28;20029;-55
2023/04/05 05:27:10;;;;;;;10.48;5.30;;;;;;;;;;5025302;28;20032;-55
2023/04/05 05:29:36;;;;;;;13.48;6.65;;;;;;;;;;5026963;28;20022;-54
2023/04/05 05:32:01;;;;;;;22.08;6.50;;;;;;;;;;5026466;28;20057;-54
2023/04/05 05:34:26;;;;;;;16.00;6.65;;;;;;;;;;5026624;28;20419;-51
2023/04/05 05:36:53;;;;;;;12.27;6.43;;;;;;;;;;5026729;28;20136;-56
2023/04/05 05:39:19;;;;;;;16.15;6.30;;;;;;;;;;5025431;28;20469;-54
2023/04/05 05:41:44;;;;;;;15.43;6.25;;;;;;;;;;5026515;28;20037;-54
2023/04/05 05:44:10;;;;;;;14.98;6.07;;;;;;;;;;5030327;28;20534;-53
2023/04/05 05:46:35;;;;;;;14.40;5.50;;;;;;;;;;5007724;28;20030;-54
2023/04/05 05:49:00;;;;;;;9.65;5.18;;;;;;;;;;5013679;28;20029;-54
2023/04/05 05:51:26;;;;;;;12.80;5.80;;;;;;;;;;5022797;28;20032;-55
2023/04/05 05:53:51;;;;;;;12.50;5.80;;;;;;;;;;5019442;28;20468;-52
2023/04/05 05:56:16;;;;;;;13.52;5.95;;;;;;;;;;5025668;28;20406;-55
2023/04/05 05:58:42;;;;;;;12.57;5.32;;;;;;;;;;5011129;28;20041;-55
2023/04/05 06:01:07;;;;;;;11.60;6.03;;;;;;;;;;5014504;28;20791;-54
2023/04/05 06:03:32;;;;;;;12.68;5.63;;;;;;;;;;5027473;28;20025;-58
2023/04/05 06:05:58;;;;;;;7.90;4.50;;;;;;;;;;5010341;28;20041;-52
2023/04/05 06:08:24;;;;;;;13.25;5.18;;;;;;;;;;5023073;28;20033;-56
2023/04/05 06:10:51;;;;;;;12.05;5.53;;;;;;;;;;5006887;28;20026;-56
2023/04/05 06:13:17;;;;;;;8.13;4.78;;;;;;;;;;5006765;28;20022;-58
2023/04/05 06:15:42;;;;;;;11.05;5.18;;;;;;;;;;5020270;28;20018;-55
2023/04/05 06:18:07;;;;;;;8.65;4.57;;;;;;;;;;5006756;28;20017;-54
2023/04/05 06:20:33;;;;;;;11.82;5.20;;;;;;;;;;5026381;28;20539;-54
2023/04/05 06:22:58;;;;;;;8.80;4.78;;;;;;;;;;5006154;28;20442;-56
2023/04/05 06:25:23;;;;;;;12.82;5.07;;;;;;;;;;5012921;28;20033;-55
2023/04/05 06:27:48;;;;;;;14.25;5.05;;;;;;;;;;5019435;28;20477;-54
2023/04/05 06:30:14;;;;;;;14.00;5.55;;;;;;;;;;5044989;28;20559;-55
2023/04/05 06:32:39;;;;;;;14.57;4.57;;;;;;;;;;5030251;28;20033;-53
2023/04/05 06:35:05;;;;;;;11.65;4.85;;;;;;;;;;5026855;28;20060;-54
2023/04/05 06:37:30;;;;;;;8.95;4.68;;;;;;;;;;5021567;28;20488;-54
2023/04/05 06:39:57;;;;;;;17.15;4.95;;;;;;;;;;5014308;28;20017;-55
2023/04/05 06:42:22;;;;;;;11.10;5.22;;;;;;;;;;5010408;28;20017;-55
2023/04/05 06:44:47;;;;;;;8.82;4.20;;;;;;;;;;5016611;28;20056;-53
2023/04/05 06:47:13;;;;;;;9.82;5.07;;;;;;;;;;5017389;28;20022;-51
2023/04/05 06:49:38;;;;;;;12.00;3.88;;;;;;;;;;5010755;28;20070;-51
2023/04/05 06:52:05;;;;;;;9.20;4.65;;;;;;;;;;5039293;28;20047;-54
2023/04/05 06:54:35;;;;;;;8.65;4.30;;;;;;;;;;5022608;28;20024;-49
2023/04/05 06:57:01;;;;;;;9.85;4.97;;;;;;;;;;5039958;28;20033;-52
2023/04/05 06:59:27;;;;;;;10.18;5.05;;;;;;;;;;5006017;28;20040;-52
2023/04/05 07:01:52;;;;;;;8.55;4.82;;;;;;;;;;5021640;28;20021;-49
2023/04/05 07:04:18;;;;;;;10.30;4.57;;;;;;;;;;5020174;28;20036;-53
2023/04/05 07:06:43;;;;;;;9.60;4.60;;;;;;;;;;5024837;28;20040;-54
2023/04/05 07:09:08;;;;;;;7.82;4.07;;;;;;;;;;5004574;28;20171;-47
2023/04/05 07:11:33;;;;;;;9.00;3.92;;;;;;;;;;5016391;28;20030;-51
2023/04/05 07:13:59;;;;;;;8.23;4.78;;;;;;;;;;5016249;28;20501;-50
2023/04/05 07:16:25;;;;;;;8.43;4.35;;;;;;;;;;5019824;28;20025;-51
2023/04/05 07:18:50;;;;;;;7.07;4.00;;;;;;;;;;5017421;28;20535;-49
2023/04/05 07:21:16;;;;;;;7.82;4.30;;;;;;;;;;5019931;28;20488;-50
2023/04/05 07:23:41;;;;;;;9.43;4.63;;;;;;;;;;5019202;28;20354;-54
2023/04/05 07:26:07;;;;;;;9.20;3.90;;;;;;;;;;5021819;28;20083;-49
2023/04/05 07:28:36;;;;;;;10.02;4.03;;;;;;;;;;5022060;28;20428;-50
2023/04/05 07:31:02;;;;;;;10.05;4.97;;;;;;;;;;5022179;28;20082;-48
2023/04/05 07:33:27;;;;;;;8.18;4.05;;;;;;;;;;5019872;28;20033;-54
2023/04/05 07:35:55;;;;;;;6.85;3.97;;;;;;;;;;5015709;28;20045;-52
2023/04/05 07:38:21;;;;;;;6.55;4.15;;;;;;;;;;5021793;28;20112;-51
2023/04/05 07:40:48;;;;;;;6.88;3.72;;;;;;;;;;5021790;28;20049;-52
2023/04/05 07:43:13;;;;;;;7.45;4.50;;;;;;;;;;5021928;28;20036;-51
2023/04/05 07:45:39;;;;;;;7.95;4.00;;;;;;;;;;5020306;28;20033;-50
2023/04/05 07:48:04;;;;;;;12.38;3.83;;;;;;;;;;5021207;28;20461;-54
2023/04/05 07:50:30;;;;;;;6.63;4.30;;;;;;;;;;5020623;28;20501;-51
2023/04/05 07:52:55;;;;;;;7.40;4.07;;;;;;;;;;5022627;28;20504;-54
2023/04/05 07:55:20;;;;;;;7.40;4.10;;;;;;;;;;5017730;28;20025;-55
2023/04/05 07:57:46;;;;;;;9.40;4.47;;;;;;;;;;5021473;28;20029;-56
2023/04/05 08:00:12;;;;;;;6.90;4.00;;;;;;;;;;5022309;28;20033;-53
2023/04/05 08:02:37;;;;;;;8.02;3.53;;;;;;;;;;5019759;28;20020;-55
2023/04/05 08:05:03;;;;;;;7.32;4.07;;;;;;;;;;5019370;28;20026;-54
2023/04/05 08:07:28;;;;;;;7.90;4.00;;;;;;;;;;5016132;28;20041;-52
2023/04/05 08:09:56;;;;;;;8.85;3.95;;;;;;;;;;5020570;28;20040;-55
2023/04/05 08:12:22;;;;;;;8.05;4.85;;;;;;;;;;5021589;28;20017;-53
2023/04/05 08:14:47;;;;;;;9.80;4.10;;;;;;;;;;5015500;28;20578;-55
2023/04/05 08:17:13;;;;;;;6.93;3.95;;;;;;;;;;5019727;28;20025;-55
2023/04/05 08:19:38;;;;;;;7.00;4.25;;;;;;;;;;5022181;28;20481;-56
2023/04/05 08:22:04;;;;;;;7.45;3.97;;;;;;;;;;5020318;28;20036;-55
2023/04/05 08:24:29;;;;;;;6.20;3.85;;;;;;;;;;5020092;28;20022;-48
2023/04/05 08:26:55;;;;;;;7.93;4.22;;;;;;;;;;5021483;28;20124;-55
2023/04/05 08:29:20;;;;;;;9.40;4.10;;;;;;;;;;5038382;28;20017;-54
2023/04/05 08:31:45;;;;;;;6.82;3.58;;;;;;;;;;5020322;28;20397;-54
2023/04/05 08:34:11;;;;;;;5.68;4.10;;;;;;;;;;5020307;28;20064;-56
2023/04/05 08:36:37;;;;;;;7.70;4.05;;;;;;;;;;5019887;28;20061;-55
2023/04/05 08:39:02;;;;;;;9.40;4.38;;;;;;;;;;5020464;28;20026;-54
2023/04/05 08:41:35;;;;;;;8.50;4.75;;;;;;;;;;5023925;28;20605;-57
2023/04/05 08:44:04;;;;;;;7.95;4.20;;;;;;;;;;5020859;28;21285;-55
2023/04/05 08:46:30;;;;;;;;;;;;;;;;;;5020823;28;20477;-54
2023/04/05 08:48:57;;;;;;;7.70;4.22;;;;;;;;;;5014507;28;19931;-54
2023/04/05 08:51:23;;;;;;;10.60;4.78;;;;;;;;;;5016912;28;20030;-54
2023/04/05 08:53:48;;;;;;;7.32;3.85;;;;;;;;;;5020009;28;20423;-55
2023/04/05 08:56:23;;;;;;;7.30;4.18;;;;;;;;;;5019591;28;20083;-55
2023/04/05 08:59:08;;;;;;;10.00;4.43;;;;;;;;;;5018906;28;20473;-54
2023/04/05 09:01:38;;;;;;;7.45;4.22;;;;;;;;;;5018349;28;20034;-56
2023/04/05 09:04:03;;;;;;;;;;;;;;;;;;5018732;28;20227;-55
2023/04/05 09:06:28;;;;;;;8.10;3.92;;;;;;;;;;5018972;28;20169;-51
2023/04/05 09:08:55;;;;;;;7.15;3.97;;;;;;;;;;5024787;28;20301;-55
2023/04/05 09:11:20;;;;;;;19.42;4.50;;;;;;;;;;5018589;28;20113;-54
2023/04/05 09:13:46;;;;;;;13.80;4.40;;;;;;;;;;5017607;28;20101;-53
2023/04/05 09:16:13;;;;;;;7.05;3.97;;;;;;;;;;5014951;28;20037;-61
2023/04/05 09:18:38;;;;;;;8.75;4.20;;;;;;;;;;5014381;28;20040;-55
2023/04/05 09:21:04;;;;;;;7.85;4.30;;;;;;;;;;5022504;28;20021;-52
2023/04/05 09:23:30;;;;;;;9.48;4.15;;;;;;;;;;5021163;28;20041;-57
2023/04/05 09:25:55;;;;;;;8.20;5.07;;;;;;;;;;5025258;28;20097;-56
2023/04/05 09:28:20;;;;;;;10.80;4.28;;;;;;;;;;5024587;28;20141;-54
2023/04/05 09:30:46;;;;;;;8.30;4.45;;;;;;;;;;5026259;28;20033;-58
2023/04/05 09:33:14;;;;;;;9.88;4.47;;;;;;;;;;5027375;28;20455;-58
2023/04/05 09:35:40;;;;;;;7.60;4.07;;;;;;;;;;5020110;28;20080;-57
2023/04/05 09:38:05;;;;;;;6.18;3.78;;;;;;;;;;5011357;28;20477;-55
2023/04/05 09:40:44;;;;;;;8.02;3.80;;;;;;;;;;5010583;28;20540;-54
2023/04/05 09:43:10;;;;;;;8.32;4.25;;;;;;;;;;5010673;28;20022;-56
2023/04/05 09:45:40;;;;;;;16.23;7.57;;;;;;;;;;5044270;28;20029;-53
2023/04/05 09:48:05;;;;;;;15.32;7.95;;;;;;;;;;5037604;28;20104;-50
2023/04/05 09:50:31;;;;;;;11.45;7.05;;;;;;;;;;5029090;28;20121;-52
2023/04/05 09:53:22;;;;;;;10.00;4.50;;;;;;;;;;5028321;28;20053;-56
2023/04/05 09:55:47;;;;;;;7.00;4.10;;;;;;;;;;5023636;28;20252;-55
2023/04/05 09:58:18;;;;;;;60.60;29.13;;;;;;;;;;5023494;28;20266;-56
2023/04/05 10:00:52;;;;;;;64.50;31.83;;;;;;;;;;5023517;28;20045;-55
2023/04/05 10:03:18;;;;;;;11.93;7.43;;;;;;;;;;5007555;28;20265;-53
2023/04/05 10:05:43;;;;;;;17.58;9.50;;;;;;;;;;5009527;28;20025;-55
2023/04/05 10:08:09;;;;;;;19.70;9.40;;;;;;;;;;5014882;28;20031;-56
2023/04/05 10:10:38;;;;;;;18.58;6.10;;;;;;;;;;5027121;28;20030;-53
2023/04/05 10:13:04;;;;;;;18.00;7.95;;;;;;;;;;5021608;28;20072;-54
2023/04/05 10:15:30;;;;;;;20.25;7.88;;;;;;;;;;5014665;28;20840;-54
2023/04/05 10:17:59;;;;;;;8.27;4.57;;;;;;;;;;5018533;28;20111;-50
2023/04/05 10:20:26;;;;;;;17.48;7.72;;;;;;;;;;5019787;28;20030;-56
2023/04/05 10:22:51;;;;;;;12.82;5.70;;;;;;;;;;5018572;28;20061;-55
2023/04/05 10:25:16;;;;;;;24.08;7.18;;;;;;;;;;5014784;28;20092;-55
2023/04/05 10:27:46;;;;;;;15.63;6.88;;;;;;;;;;5022625;28;20766;-57
2023/04/05 10:30:11;;;;;;;12.63;5.68;;;;;;;;;;5003060;28;20405;-55
2023/04/05 10:32:42;;;;;;;7.32;3.50;;;;;;;;;;5016776;28;20039;-58
2023/04/05 10:35:10;;;;;;;6.50;3.65;;;;;;;;;;5017933;28;20239;-57
2023/04/05 10:37:54;;;;;;;12.38;4.75;;;;;;;;;;5020616;28;20405;-56
2023/04/05 10:40:20;;;;;;;20.77;9.02;;;;;;;;;;5019369;28;20013;-54
2023/04/05 10:42:46;;;;;;;19.50;7.60;;;;;;;;;;5019539;28;20034;-52
2023/04/05 10:45:14;;;;;;;11.68;5.32;;;;;;;;;;5016077;28;20381;-54
2023/04/05 10:47:44;;;;;;;7.75;3.92;;;;;;;;;;5017405;28;20537;-57
2023/04/05 10:50:15;;;;;;;6.93;3.92;;;;;;;;;;5036316;28;20041;-54
2023/04/05 10:52:41;;;;;;;9.73;4.32;;;;;;;;;;5017725;28;20096;-58
2023/04/05 10:55:07;;;;;;;7.70;4.18;;;;;;;;;;5017341;28;20108;-55
2023/04/05 10:57:33;;;;;;;10.80;4.20;;;;;;;;;;5019420;28;20021;-56
2023/04/05 10:59:58;;;;;;;8.00;4.38;;;;;;;;;;5012876;28;20038;-55
2023/04/05 11:02:24;;;;;;;19.58;7.47;;;;;;;;;;5025541;28;20025;-58
2023/04/05 11:04:56;;;;;;;11.88;5.00;;;;;;;;;;5025293;28;20495;-55
2023/04/05 11:07:21;;;;;;;12.73;4.15;;;;;;;;;;5025642;28;20032;-48
2023/04/05 11:10:03;;;;;;;12.13;4.68;;;;;;;;;;5023472;28;20037;-53
2023/04/05 11:12:47;;;;;;;7.72;4.63;;;;;;;;;;5021618;28;20053;-52
2023/04/05 11:15:26;;;;;;;9.55;4.03;;;;;;;;;;5022753;28;20068;-53
2023/04/05 11:18:00;;;;;;;10.17;4.17;;;;;;;;;;5026256;28;20029;-53
2023/04/05 11:20:26;;;;;;;8.32;4.35;;;;;;;;;;5033326;28;20018;-52
2023/04/05 11:22:52;;;;;;;7.90;3.80;;;;;;;;;;5024398;28;20026;-53
2023/04/05 11:25:21;;;;;;;5.07;3.58;;;;;;;;;;5025345;28;20370;-59
2023/04/05 11:27:59;;;;;;;14.40;4.75;;;;;;;;;;5017307;28;20034;-52
2023/04/05 11:30:43;;;;;;;10.98;5.10;;;;;;;;;;5025770;28;20107;-50
2023/04/05 11:33:08;;;;;;;5.13;3.35;;;;;;;;;;5021501;28;20013;-53
2023/04/05 11:35:33;;;;;;;7.85;4.20;;;;;;;;;;5024193;28;20049;-55
2023/04/05 11:37:59;;;;;;;9.40;3.83;;;;;;;;;;5018516;28;20033;-55
2023/04/05 11:40:28;;;;;;;13.80;4.50;;;;;;;;;;5022268;28;20033;-54
2023/04/05 11:42:58;;;;;;;7.47;4.10;;;;;;;;;;5019946;28;20388;-53
2023/04/05 11:45:23;;;;;;;;;;;;;;;;;;5018536;28;20441;-54
2023/04/05 11:47:48;;;;;;;8.70;4.07;;;;;;;;;;5032649;28;20262;-56
2023/04/05 11:50:13;;;;;;;6.35;3.95;;;;;;;;;;5019352;28;20443;-54
2023/04/05 11:52:39;;;;;;;9.60;4.22;;;;;;;;;;5009612;28;20717;-57
2023/04/05 11:55:04;;;;;;;8.50;3.22;;;;;;;;;;5016285;28;20515;-53
2023/04/05 11:57:30;;;;;;;7.22;3.80;;;;;;;;;;5024157;28;20029;-53
2023/04/05 11:59:55;;;;;;;10.32;3.90;;;;;;;;;;5024421;28;20048;-52
2023/04/05 12:02:21;;;;;;;4.85;3.42;;;;;;;;;;5034509;28;20106;-53
2023/04/05 12:04:53;;;;;;;5.40;3.42;;;;;;;;;;5031633;28;20355;-53
2023/04/05 12:07:18;;;;;;;6.60;3.80;;;;;;;;;;5011712;28;20478;-54
2023/04/05 12:10:02;;;;;;;6.57;4.13;;;;;;;;;;5021924;28;20040;-56
2023/04/05 12:12:35;;;;;;;6.90;3.95;;;;;;;;;;5018844;28;20037;-52
2023/04/05 12:15:01;;;;;;;6.78;3.53;;;;;;;;;;5016794;28;20442;-57
2023/04/05 12:17:39;;;;;;;8.80;4.53;;;;;;;;;;5020584;28;20033;-54
2023/04/05 12:20:05;;;;;;;9.80;4.28;;;;;;;;;;5020342;28;20029;-52
2023/04/05 12:22:30;;;;;;;8.25;4.15;;;;;;;;;;5018589;28;20406;-57
2023/04/05 12:24:55;;;;;;;82.97;10.82;;;;;;;;;;5019175;28;20032;-53
2023/04/05 12:27:21;;;;;;;8.13;3.97;;;;;;;;;;5011854;28;20029;-55
2023/04/05 12:30:05;;;;;;;5.78;3.47;;;;;;;;;;5019624;28;20385;-57
2023/04/05 12:32:50;;;;;;;5.43;3.67;;;;;;;;;;5013242;28;20025;-52
2023/04/05 12:35:16;;;;;;;8.13;4.00;;;;;;;;;;5017599;28;20250;-51
2023/04/05 12:37:42;;;;;;;7.45;3.95;;;;;;;;;;5012011;28;20337;-55
2023/04/05 12:40:08;;;;;;;7.32;3.90;;;;;;;;;;5019304;28;20033;-57
2023/04/05 12:42:36;;;;;;;9.48;3.50;;;;;;;;;;5024254;28;20079;-53
2023/04/05 12:45:03;;;;;;;8.10;4.03;;;;;;;;;;5016546;28;20029;-56
2023/04/05 12:47:29;;;;;;;5.05;3.40;;;;;;;;;;5019873;28;20350;-54
2023/04/05 12:49:54;;;;;;;9.15;4.30;;;;;;;;;;5018558;28;20120;-58
2023/04/05 12:52:20;;;;;;;11.18;4.65;;;;;;;;;;5008046;28;20101;-57
2023/04/05 12:54:52;;;;;;;7.40;3.70;;;;;;;;;;5012926;28;20519;-53
2023/04/05 12:57:17;;;;;;;9.18;4.10;;;;;;;;;;5023381;28;20112;-49
2023/04/05 12:59:43;;;;;;;9.15;3.95;;;;;;;;;;5022429;28;20124;-55
2023/04/05 13:02:08;;;;;;;5.80;3.30;;;;;;;;;;5022619;28;20025;-52
2023/04/05 13:04:33;;;;;;;6.30;3.88;;;;;;;;;;5020259;28;20305;-55
2023/04/05 13:06:58;;;;;;;11.15;4.30;;;;;;;;;;5025228;28;20481;-55
2023/04/05 13:09:24;;;;;;;7.22;3.88;;;;;;;;;;5021330;28;20063;-54
2023/04/05 13:11:49;;;;;;;9.73;4.50;;;;;;;;;;5024481;28;20496;-54
2023/04/05 13:14:15;;;;;;;8.73;4.10;;;;;;;;;;5024123;28;20025;-53
2023/04/05 13:16:40;;;;;;;129.98;82.43;;;;;;;;;;5020276;28;20021;-58
2023/04/05 13:19:05;;;;;;;22.52;20.30;;;;;;;;;;5021335;28;20018;-56
2023/04/05 13:21:31;;;;;;;273.40;165.20;;;;;;;;;;5010700;28;20220;-56
2023/04/05 13:23:56;;;;;;;172.52;140.68;;;;;;;;;;5026757;28;20804;-51
2023/04/05 13:26:22;;;;;;;9.63;7.53;;;;;;;;;;5020617;28;20049;-51
2023/04/05 13:28:47;;;;;;;106.45;88.10;;;;;;;;;;5012756;28;20033;-53
2023/04/05 13:31:13;;;;;;;49.63;44.67;;;;;;;;;;5021770;28;20033;-59
2023/04/05 13:33:38;;;;;;;34.35;30.85;;;;;;;;;;5021756;28;20026;-56
2023/04/05 13:36:03;;;;;;;18.95;6.38;;;;;;;;;;5017621;28;20045;-57
2023/04/05 13:38:29;;;;;;;17.60;7.43;;;;;;;;;;5020639;28;20053;-54
2023/04/05 13:40:54;;;;;;;9.88;4.47;;;;;;;;;;5018246;28;20029;-57
2023/04/05 13:43:19;;;;;;;15.23;6.80;;;;;;;;;;5025112;28;20378;-53
2023/04/05 13:45:45;;;;;;;15.10;5.13;;;;;;;;;;5021487;28;20248;-54
2023/04/05 13:48:10;;;;;;;19.95;7.07;;;;;;;;;;5019370;28;20025;-57
2023/04/05 13:50:35;;;;;;;10.63;6.05;;;;;;;;;;5022515;28;20042;-56
2023/04/05 13:53:00;;;;;;;55.95;51.47;;;;;;;;;;5020963;28;20690;-52
2023/04/05 13:55:26;;;;;;;123.07;113.63;;;;;;;;;;5016747;28;20316;-57
2023/04/05 13:57:51;;;;;;;143.50;132.68;;;;;;;;;;5027872;28;20393;-55
2023/04/05 14:00:16;;;;;;;137.55;127.28;;;;;;;;;;5012816;28;20056;-54
2023/04/05 14:02:42;;;;;;;113.45;104.90;;;;;;;;;;5018792;28;20021;-56
2023/04/05 14:05:08;;;;;;;98.13;91.38;;;;;;;;;;5029823;28;20021;-54
2023/04/05 14:07:33;;;;;;;53.13;49.58;;;;;;;;;;5015016;28;20564;-50
2023/04/05 14:09:59;;;;;;;59.95;55.42;;;;;;;;;;5021977;28;20034;-58
2023/04/05 14:12:24;;;;;;;46.42;42.88;;;;;;;;;;5021445;28;21235;-57
2023/04/05 14:14:49;;;;;;;37.80;34.45;;;;;;;;;;5020171;28;20441;-55
2023/04/05 14:17:15;;;;;;;38.60;35.25;;;;;;;;;;5018675;28;20504;-55
2023/04/05 14:19:40;;;;;;;21.88;19.80;;;;;;;;;;5023018;28;20026;-52
2023/04/05 14:22:06;;;;;;;21.13;16.38;;;;;;;;;;5019317;28;20029;-49
2023/04/05 14:24:31;;;;;;;26.13;23.77;;;;;;;;;;5024946;28;20592;-55
2023/04/05 14:26:56;;;;;;;19.42;16.30;;;;;;;;;;5024136;28;20036;-51
2023/04/05 14:29:22;;;;;;;9.68;3.78;;;;;;;;;;5024958;28;20140;-53
2023/04/05 14:31:47;;;;;;;9.57;3.28;;;;;;;;;;5019200;28;20044;-53
2023/04/05 14:34:13;;;;;;;8.02;3.63;;;;;;;;;;5019342;28;20446;-55